CST,Max TemperatureF,Mean TemperatureF,Min TemperatureF,Max Dew PointF,MeanDew PointF,Min DewpointF,Max Humidity, Mean Humidity, Min Humidity, Max Sea Level PressureIn, Mean Sea Level PressureIn, Min Sea Level PressureIn, Max VisibilityMiles, Mean VisibilityMiles, Min VisibilityMiles, Max Wind SpeedMPH, Mean Wind SpeedMPH, Max Gust SpeedMPH,PrecipitationIn, CloudCover, Events, WindDirDegrees
2013-2-1,29,16,3,15,8,-1,83,65,46,30.52,30.37,30.18,10,10,10,15,6,20,0.00,1,,173
2013-2-2,51,37,22,32,25,14,81,65,48,30.25,30.18,30.12,10,10,10,17,7,20,0.00,2,,287
2013-2-3,50,37,23,28,24,16,82,57,31,30.31,30.12,29.86,10,10,10,21,8,25,0.00,0,,204
2013-2-4,49,34,19,30,25,19,92,67,42,30.02,29.94,29.80,10,10,7,21,7,24,0.00,0,,342
2013-2-5,61,40,18,31,24,17,92,62,32,30.12,30.01,29.94,10,8,4,21,6,24,0.00,0,,339
2013-2-6,64,44,23,42,33,20,88,61,34,30.11,30.00,29.88,10,10,7,20,8,26,0.00,3,,141
2013-2-7,53,43,33,46,40,26,93,76,59,30.25,29.97,29.87,10,3,1,23,11,29,0.76,7,Rain,341
2013-2-8,46,39,31,30,27,24,85,69,53,30.38,30.30,30.24,8,6,4,16,8,20,0.00,4,,74
2013-2-9,51,41,30,37,32,26,86,70,54,30.23,30.01,29.74,8,5,3,23,14,26,T,3,,136
2013-2-10,52,45,38,45,35,23,93,67,41,29.94,29.63,29.48,10,7,2,38,22,47,0.03,6,Rain,212
2013-2-11,48,35,22,24,22,19,75,55,34,30.20,30.13,29.97,10,10,10,25,9,33,0.00,0,,296
2013-2-12,43,31,19,27,21,16,88,66,43,30.21,30.10,29.99,10,9,5,8,1,10,0.00,1,,266
2013-2-13,59,40,20,27,22,18,88,56,24,29.99,29.89,29.82,10,9,6,21,5,26,0.00,0,,287
2013-2-14,52,37,22,32,24,19,81,57,33,30.22,30.04,29.87,10,10,10,22,10,29,0.00,1,,316
2013-2-15,41,30,18,27,19,6,85,57,29,30.43,30.33,30.22,10,7,0,29,11,36,0.04,6,Fog-Snow,351
2013-2-16,37,26,15,25,20,12,92,70,47,30.36,30.26,30.09,10,6,0,14,6,17,0.01,6,Fog-Snow,241
2013-2-17,61,43,25,33,27,18,75,55,35,30.07,29.89,29.65,10,10,8,20,10,25,0.00,1,,140
2013-2-18,59,41,23,44,29,15,67,53,38,30.13,29.75,29.51,10,10,8,36,18,44,0.00,3,,292
2013-2-19,38,27,16,16,9,1,77,49,21,30.39,30.29,30.14,10,10,7,22,10,33,0.00,0,,319
2013-2-20,27,21,15,13,7,2,59,50,41,30.41,30.32,30.20,10,10,10,14,9,,0.00,5,,70
2013-2-21,28,25,22,25,20,13,92,74,55,30.22,29.89,29.77,10,3,0,26,12,161,0.55,8,Fog-Rain-Snow-Thunderstorm,73
2013-2-22,28,17,5,22,15,1,92,78,63,30.13,30.00,29.82,9,5,1,20,9,25,T,3,Snow,294
2013-2-23,34,15,-4,21,2,-9,100,79,58,30.13,30.06,29.99,9,3,0,12,3,13,0.00,1,Fog,141
2013-2-24,45,26,7,27,13,3,100,75,49,30.05,29.99,29.92,10,4,0,18,5,24,0.00,2,Fog,85
2013-2-25,38,35,31,32,28,23,89,77,64,29.99,29.85,29.71,10,4,0,23,11,31,0.24,6,Fog-Rain-Snow,38
2013-2-26,36,34,32,31,30,28,89,82,75,29.90,29.71,29.62,4,2,0,29,18,37,0.12,8,Fog-Snow,350
2013-2-27,39,35,30,29,26,23,92,73,54,30.10,29.95,29.86,10,3,1,28,14,31,0.01,7,Snow,310
2013-2-28,34,32,30,27,24,21,78,75,72,30.24,30.20,30.08,9,7,5,23,14,29,0.00,8,,329